sensor_id;sensor_type;location;lat;lon;timestamp;P1;durP1;ratioP1;P2;durP2;ratioP2
1811;SDS011;904;47.814;11.134;2022-08-19T00:01:15;3.90;;;2.87;;
1811;SDS011;904;47.814;11.134;2022-08-19T00:03:42;4.67;;;3.83;;
1811;SDS011;904;47.814;11.134;2022-08-19T00:06:09;5.30;;;3.67;;
1811;SDS011;904;47.814;11.134;2022-08-19T00:08:38;10.03;;;3.47;;
1811;SDS011;904;47.814;11.134;2022-08-19T00:11:05;13.40;;;3.80;;
1811;SDS011;904;47.814;11.134;2022-08-19T00:13:33;5.63;;;3.30;;
1811;SDS011;904;47.814;11.134;2022-08-19T00:16:00;5.23;;;4.23;;
1811;SDS011;904;47.814;11.134;2022-08-19T00:18:28;5.83;;;4.20;;
1811;SDS011;904;47.814;11.134;2022-08-19T00:20:55;5.60;;;4.20;;
1811;SDS011;904;47.814;11.134;2022-08-19T00:23:23;4.20;;;3.40;;
1811;SDS011;904;47.814;11.134;2022-08-19T00:25:51;5.27;;;3.47;;
1811;SDS011;904;47.814;11.134;2022-08-19T00:28:18;4.43;;;3.70;;
1811;SDS011;904;47.814;11.134;2022-08-19T00:30:46;4.80;;;3.47;;
1811;SDS011;904;47.814;11.134;2022-08-19T00:33:13;5.97;;;3.77;;
1811;SDS011;904;47.814;11.134;2022-08-19T00:35:41;4.30;;;3.37;;
1811;SDS011;904;47.814;11.134;2022-08-19T00:38:08;5.07;;;3.33;;
1811;SDS011;904;47.814;11.134;2022-08-19T00:40:36;4.70;;;3.20;;
1811;SDS011;904;47.814;11.134;2022-08-19T00:43:08;4.40;;;3.70;;
1811;SDS011;904;47.814;11.134;2022-08-19T00:45:39;4.30;;;3.37;;
1811;SDS011;904;47.814;11.134;2022-08-19T00:48:08;5.30;;;3.93;;
1811;SDS011;904;47.814;11.134;2022-08-19T00:50:36;4.97;;;4.40;;
1811;SDS011;904;47.814;11.134;2022-08-19T00:53:08;5.43;;;3.50;;
1811;SDS011;904;47.814;11.134;2022-08-19T00:55:37;5.17;;;4.63;;
1811;SDS011;904;47.814;11.134;2022-08-19T00:58:06;4.50;;;3.90;;
1811;SDS011;904;47.814;11.134;2022-08-19T01:00:38;6.03;;;5.43;;
1811;SDS011;904;47.814;11.134;2022-08-19T01:03:06;5.30;;;4.57;;
1811;SDS011;904;47.814;11.134;2022-08-19T01:05:35;5.00;;;4.10;;
1811;SDS011;904;47.814;11.134;2022-08-19T01:08:04;6.10;;;4.73;;
1811;SDS011;904;47.814;11.134;2022-08-19T01:10:33;6.07;;;5.27;;
1811;SDS011;904;47.814;11.134;2022-08-19T01:13:05;5.40;;;4.00;;
1811;SDS011;904;47.814;11.134;2022-08-19T01:15:35;6.83;;;4.47;;
1811;SDS011;904;47.814;11.134;2022-08-19T01:18:08;6.00;;;4.00;;
1811;SDS011;904;47.814;11.134;2022-08-19T01:20:40;6.33;;;4.13;;
1811;SDS011;904;47.814;11.134;2022-08-19T01:23:10;4.50;;;3.30;;
1811;SDS011;904;47.814;11.134;2022-08-19T01:25:39;5.93;;;4.07;;
1811;SDS011;904;47.814;11.134;2022-08-19T01:28:14;5.37;;;3.23;;
1811;SDS011;904;47.814;11.134;2022-08-19T01:30:44;4.87;;;3.73;;
1811;SDS011;904;47.814;11.134;2022-08-19T01:33:11;4.70;;;3.57;;
1811;SDS011;904;47.814;11.134;2022-08-19T01:35:39;6.33;;;3.63;;
1811;SDS011;904;47.814;11.134;2022-08-19T01:38:09;5.47;;;4.20;;
1811;SDS011;904;47.814;11.134;2022-08-19T01:40:45;6.97;;;4.50;;
1811;SDS011;904;47.814;11.134;2022-08-19T01:43:13;4.97;;;3.50;;
1811;SDS011;904;47.814;11.134;2022-08-19T01:45:40;5.00;;;4.50;;
1811;SDS011;904;47.814;11.134;2022-08-19T01:48:07;5.10;;;3.40;;
1811;SDS011;904;47.814;11.134;2022-08-19T01:50:35;5.00;;;3.90;;
1811;SDS011;904;47.814;11.134;2022-08-19T01:53:03;5.17;;;3.47;;
1811;SDS011;904;47.814;11.134;2022-08-19T01:55:33;5.90;;;3.50;;
1811;SDS011;904;47.814;11.134;2022-08-19T01:58:02;4.17;;;3.27;;
1811;SDS011;904;47.814;11.134;2022-08-19T02:00:32;6.90;;;3.80;;
1811;SDS011;904;47.814;11.134;2022-08-19T02:02:59;5.40;;;4.20;;
1811;SDS011;904;47.814;11.134;2022-08-19T02:05:27;5.00;;;4.10;;
1811;SDS011;904;47.814;11.134;2022-08-19T02:07:55;4.07;;;3.27;;
1811;SDS011;904;47.814;11.134;2022-08-19T02:10:22;6.30;;;4.20;;
1811;SDS011;904;47.814;11.134;2022-08-19T02:12:51;4.37;;;3.70;;
1811;SDS011;904;47.814;11.134;2022-08-19T02:15:19;5.20;;;3.57;;
1811;SDS011;904;47.814;11.134;2022-08-19T02:17:47;5.63;;;3.20;;
1811;SDS011;904;47.814;11.134;2022-08-19T02:20:14;4.33;;;3.53;;
1811;SDS011;904;47.814;11.134;2022-08-19T02:22:42;4.13;;;3.20;;
1811;SDS011;904;47.814;11.134;2022-08-19T02:25:10;4.60;;;3.50;;
1811;SDS011;904;47.814;11.134;2022-08-19T02:27:37;5.20;;;3.47;;
1811;SDS011;904;47.814;11.134;2022-08-19T02:30:08;6.17;;;3.67;;
1811;SDS011;904;47.814;11.134;2022-08-19T02:32:37;4.43;;;3.10;;
1811;SDS011;904;47.814;11.134;2022-08-19T02:35:05;4.97;;;3.53;;
1811;SDS011;904;47.814;11.134;2022-08-19T02:37:33;4.27;;;3.87;;
1811;SDS011;904;47.814;11.134;2022-08-19T02:40:17;5.77;;;4.10;;
1811;SDS011;904;47.814;11.134;2022-08-19T02:42:45;5.00;;;3.50;;
1811;SDS011;904;47.814;11.134;2022-08-19T02:45:13;4.60;;;3.67;;
1811;SDS011;904;47.814;11.134;2022-08-19T02:47:41;3.50;;;2.87;;
1811;SDS011;904;47.814;11.134;2022-08-19T02:50:08;3.97;;;3.50;;
1811;SDS011;904;47.814;11.134;2022-08-19T02:52:36;5.10;;;4.20;;
1811;SDS011;904;47.814;11.134;2022-08-19T02:55:03;5.10;;;4.27;;
1811;SDS011;904;47.814;11.134;2022-08-19T02:57:32;5.80;;;5.17;;
1811;SDS011;904;47.814;11.134;2022-08-19T02:59:59;4.20;;;3.57;;
1811;SDS011;904;47.814;11.134;2022-08-19T03:02:29;5.30;;;3.93;;
1811;SDS011;904;47.814;11.134;2022-08-19T03:04:56;4.60;;;4.07;;
1811;SDS011;904;47.814;11.134;2022-08-19T03:07:23;4.13;;;2.87;;
1811;SDS011;904;47.814;11.134;2022-08-19T03:09:57;5.50;;;4.67;;
1811;SDS011;904;47.814;11.134;2022-08-19T03:12:25;5.90;;;3.67;;
1811;SDS011;904;47.814;11.134;2022-08-19T03:14:52;4.00;;;3.30;;
1811;SDS011;904;47.814;11.134;2022-08-19T03:17:19;4.10;;;3.70;;
1811;SDS011;904;47.814;11.134;2022-08-19T03:19:48;6.00;;;4.37;;
1811;SDS011;904;47.814;11.134;2022-08-19T03:22:15;5.37;;;4.23;;
1811;SDS011;904;47.814;11.134;2022-08-19T03:24:44;3.80;;;2.50;;
1811;SDS011;904;47.814;11.134;2022-08-19T03:27:11;4.60;;;3.50;;
1811;SDS011;904;47.814;11.134;2022-08-19T03:29:39;5.87;;;3.43;;
1811;SDS011;904;47.814;11.134;2022-08-19T03:32:06;5.03;;;3.90;;
1811;SDS011;904;47.814;11.134;2022-08-19T03:34:34;7.87;;;3.80;;
1811;SDS011;904;47.814;11.134;2022-08-19T03:37:04;4.37;;;3.37;;
1811;SDS011;904;47.814;11.134;2022-08-19T03:39:33;5.17;;;3.90;;
1811;SDS011;904;47.814;11.134;2022-08-19T03:42:03;4.53;;;3.50;;
1811;SDS011;904;47.814;11.134;2022-08-19T03:44:30;6.13;;;4.03;;
1811;SDS011;904;47.814;11.134;2022-08-19T03:46:58;4.93;;;3.73;;
1811;SDS011;904;47.814;11.134;2022-08-19T03:49:28;4.37;;;3.70;;
1811;SDS011;904;47.814;11.134;2022-08-19T03:51:58;5.80;;;3.53;;
1811;SDS011;904;47.814;11.134;2022-08-19T03:54:28;7.50;;;3.60;;
1811;SDS011;904;47.814;11.134;2022-08-19T03:56:56;6.83;;;4.43;;
1811;SDS011;904;47.814;11.134;2022-08-19T03:59:24;5.10;;;3.70;;
1811;SDS011;904;47.814;11.134;2022-08-19T04:01:54;6.33;;;4.00;;
1811;SDS011;904;47.814;11.134;2022-08-19T04:04:24;4.57;;;3.93;;
1811;SDS011;904;47.814;11.134;2022-08-19T04:06:52;4.23;;;3.37;;
1811;SDS011;904;47.814;11.134;2022-08-19T04:09:19;5.07;;;3.50;;
1811;SDS011;904;47.814;11.134;2022-08-19T04:11:49;4.60;;;3.60;;
1811;SDS011;904;47.814;11.134;2022-08-19T04:14:19;7.50;;;6.70;;
1811;SDS011;904;47.814;11.134;2022-08-19T04:16:49;6.47;;;5.80;;
1811;SDS011;904;47.814;11.134;2022-08-19T04:19:18;7.50;;;5.90;;
1811;SDS011;904;47.814;11.134;2022-08-19T04:21:46;5.80;;;5.13;;
1811;SDS011;904;47.814;11.134;2022-08-19T04:24:15;5.33;;;4.83;;
1811;SDS011;904;47.814;11.134;2022-08-19T04:26:42;4.27;;;3.87;;
1811;SDS011;904;47.814;11.134;2022-08-19T04:29:12;7.53;;;4.10;;
1811;SDS011;904;47.814;11.134;2022-08-19T04:31:42;5.90;;;3.73;;
1811;SDS011;904;47.814;11.134;2022-08-19T04:34:10;7.43;;;4.00;;
1811;SDS011;904;47.814;11.134;2022-08-19T04:36:40;5.20;;;3.80;;
1811;SDS011;904;47.814;11.134;2022-08-19T04:39:10;4.90;;;3.80;;
1811;SDS011;904;47.814;11.134;2022-08-19T04:41:39;5.53;;;3.70;;
1811;SDS011;904;47.814;11.134;2022-08-19T04:44:25;7.17;;;4.70;;
1811;SDS011;904;47.814;11.134;2022-08-19T04:46:55;5.63;;;4.00;;
1811;SDS011;904;47.814;11.134;2022-08-19T04:49:23;6.37;;;4.20;;
1811;SDS011;904;47.814;11.134;2022-08-19T04:51:51;3.90;;;3.30;;
1811;SDS011;904;47.814;11.134;2022-08-19T04:54:21;7.10;;;3.60;;
1811;SDS011;904;47.814;11.134;2022-08-19T04:56:50;7.80;;;4.57;;
1811;SDS011;904;47.814;11.134;2022-08-19T04:59:19;4.63;;;4.10;;
1811;SDS011;904;47.814;11.134;2022-08-19T05:01:48;7.50;;;4.80;;
1811;SDS011;904;47.814;11.134;2022-08-19T05:04:16;7.37;;;5.30;;
1811;SDS011;904;47.814;11.134;2022-08-19T05:06:47;6.90;;;5.97;;
1811;SDS011;904;47.814;11.134;2022-08-19T05:09:17;11.73;;;7.03;;
1811;SDS011;904;47.814;11.134;2022-08-19T05:11:46;8.77;;;6.70;;
1811;SDS011;904;47.814;11.134;2022-08-19T05:14:14;8.73;;;6.70;;
1811;SDS011;904;47.814;11.134;2022-08-19T05:16:42;7.30;;;6.40;;
1811;SDS011;904;47.814;11.134;2022-08-19T05:19:10;9.77;;;6.70;;
1811;SDS011;904;47.814;11.134;2022-08-19T05:21:55;7.93;;;7.13;;
1811;SDS011;904;47.814;11.134;2022-08-19T05:24:39;8.23;;;5.80;;
1811;SDS011;904;47.814;11.134;2022-08-19T05:27:06;6.50;;;5.60;;
1811;SDS011;904;47.814;11.134;2022-08-19T05:29:34;7.33;;;5.70;;
1811;SDS011;904;47.814;11.134;2022-08-19T05:32:03;5.93;;;5.13;;
1811;SDS011;904;47.814;11.134;2022-08-19T05:34:37;7.53;;;5.73;;
1811;SDS011;904;47.814;11.134;2022-08-19T05:37:09;6.17;;;4.90;;
1811;SDS011;904;47.814;11.134;2022-08-19T05:39:37;8.30;;;4.70;;
1811;SDS011;904;47.814;11.134;2022-08-19T05:42:06;6.87;;;4.90;;
1811;SDS011;904;47.814;11.134;2022-08-19T05:44:37;6.80;;;4.63;;
1811;SDS011;904;47.814;11.134;2022-08-19T05:47:09;6.87;;;5.40;;
1811;SDS011;904;47.814;11.134;2022-08-19T05:49:39;7.00;;;5.50;;
1811;SDS011;904;47.814;11.134;2022-08-19T05:52:08;7.70;;;5.57;;
1811;SDS011;904;47.814;11.134;2022-08-19T05:54:37;6.10;;;5.20;;
1811;SDS011;904;47.814;11.134;2022-08-19T05:57:06;6.80;;;5.20;;
1811;SDS011;904;47.814;11.134;2022-08-19T05:59:34;5.63;;;4.47;;
1811;SDS011;904;47.814;11.134;2022-08-19T06:02:02;5.97;;;5.40;;
1811;SDS011;904;47.814;11.134;2022-08-19T06:04:30;4.90;;;4.10;;
1811;SDS011;904;47.814;11.134;2022-08-19T06:06:58;5.00;;;4.13;;
1811;SDS011;904;47.814;11.134;2022-08-19T06:09:27;5.60;;;4.23;;
1811;SDS011;904;47.814;11.134;2022-08-19T06:11:55;11.60;;;4.77;;
1811;SDS011;904;47.814;11.134;2022-08-19T06:14:27;4.47;;;3.50;;
1811;SDS011;904;47.814;11.134;2022-08-19T06:16:55;4.47;;;3.57;;
1811;SDS011;904;47.814;11.134;2022-08-19T06:19:27;5.23;;;3.97;;
1811;SDS011;904;47.814;11.134;2022-08-19T06:21:55;4.67;;;4.17;;
1811;SDS011;904;47.814;11.134;2022-08-19T06:24:26;5.87;;;4.70;;
1811;SDS011;904;47.814;11.134;2022-08-19T06:26:57;8.80;;;5.57;;
1811;SDS011;904;47.814;11.134;2022-08-19T06:29:25;5.47;;;4.93;;
1811;SDS011;904;47.814;11.134;2022-08-19T06:31:55;4.67;;;3.90;;
1811;SDS011;904;47.814;11.134;2022-08-19T06:34:25;4.50;;;3.70;;
1811;SDS011;904;47.814;11.134;2022-08-19T06:36:53;5.07;;;3.80;;
1811;SDS011;904;47.814;11.134;2022-08-19T06:39:23;5.10;;;4.37;;
1811;SDS011;904;47.814;11.134;2022-08-19T06:41:54;5.30;;;3.83;;
1811;SDS011;904;47.814;11.134;2022-08-19T06:44:22;4.10;;;3.20;;
1811;SDS011;904;47.814;11.134;2022-08-19T06:46:52;7.00;;;4.60;;
1811;SDS011;904;47.814;11.134;2022-08-19T06:49:19;5.93;;;3.80;;
1811;SDS011;904;47.814;11.134;2022-08-19T06:51:56;6.17;;;3.83;;
1811;SDS011;904;47.814;11.134;2022-08-19T06:54:26;4.73;;;3.83;;
1811;SDS011;904;47.814;11.134;2022-08-19T06:56:59;5.77;;;3.60;;
1811;SDS011;904;47.814;11.134;2022-08-19T06:59:28;5.37;;;4.20;;
1811;SDS011;904;47.814;11.134;2022-08-19T07:01:58;6.00;;;4.30;;
1811;SDS011;904;47.814;11.134;2022-08-19T07:04:29;6.80;;;3.47;;
1811;SDS011;904;47.814;11.134;2022-08-19T07:06:59;5.97;;;4.23;;
1811;SDS011;904;47.814;11.134;2022-08-19T07:09:33;5.37;;;4.50;;
1811;SDS011;904;47.814;11.134;2022-08-19T07:12:03;6.03;;;4.30;;
1811;SDS011;904;47.814;11.134;2022-08-19T07:14:32;6.70;;;4.53;;
1811;SDS011;904;47.814;11.134;2022-08-19T07:17:04;5.50;;;4.47;;
1811;SDS011;904;47.814;11.134;2022-08-19T07:19:37;6.47;;;5.00;;
1811;SDS011;904;47.814;11.134;2022-08-19T07:22:05;6.43;;;5.83;;
1811;SDS011;904;47.814;11.134;2022-08-19T07:24:36;7.90;;;5.00;;
1811;SDS011;904;47.814;11.134;2022-08-19T07:27:05;5.80;;;5.20;;
1811;SDS011;904;47.814;11.134;2022-08-19T07:29:35;7.50;;;4.40;;
1811;SDS011;904;47.814;11.134;2022-08-19T07:32:05;6.30;;;4.77;;
1811;SDS011;904;47.814;11.134;2022-08-19T07:34:34;8.13;;;5.30;;
1811;SDS011;904;47.814;11.134;2022-08-19T07:37:03;8.03;;;4.90;;
1811;SDS011;904;47.814;11.134;2022-08-19T07:39:31;5.63;;;5.03;;
1811;SDS011;904;47.814;11.134;2022-08-19T07:42:04;6.57;;;5.13;;
1811;SDS011;904;47.814;11.134;2022-08-19T07:44:32;5.00;;;4.50;;
1811;SDS011;904;47.814;11.134;2022-08-19T07:47:00;8.03;;;4.53;;
1811;SDS011;904;47.814;11.134;2022-08-19T07:49:27;5.00;;;4.50;;
1811;SDS011;904;47.814;11.134;2022-08-19T07:51:56;7.20;;;5.07;;
1811;SDS011;904;47.814;11.134;2022-08-19T07:54:26;7.10;;;4.90;;
1811;SDS011;904;47.814;11.134;2022-08-19T07:57:00;6.10;;;4.77;;
1811;SDS011;904;47.814;11.134;2022-08-19T07:59:30;6.63;;;4.83;;
1811;SDS011;904;47.814;11.134;2022-08-19T08:01:57;5.63;;;5.03;;
1811;SDS011;904;47.814;11.134;2022-08-19T08:04:25;6.03;;;5.10;;
1811;SDS011;904;47.814;11.134;2022-08-19T08:07:12;8.10;;;6.13;;
1811;SDS011;904;47.814;11.134;2022-08-19T08:09:56;7.47;;;4.90;;
1811;SDS011;904;47.814;11.134;2022-08-19T08:12:26;6.20;;;4.83;;
1811;SDS011;904;47.814;11.134;2022-08-19T08:14:56;6.33;;;5.73;;
1811;SDS011;904;47.814;11.134;2022-08-19T08:17:28;7.70;;;5.60;;
1811;SDS011;904;47.814;11.134;2022-08-19T08:19:57;7.30;;;5.80;;
1811;SDS011;904;47.814;11.134;2022-08-19T08:22:25;8.70;;;7.80;;
1811;SDS011;904;47.814;11.134;2022-08-19T08:25:11;5.97;;;5.37;;
1811;SDS011;904;47.814;11.134;2022-08-19T08:27:47;6.07;;;4.43;;
1811;SDS011;904;47.814;11.134;2022-08-19T08:30:16;5.93;;;5.33;;
1811;SDS011;904;47.814;11.134;2022-08-19T08:32:45;7.43;;;5.87;;
1811;SDS011;904;47.814;11.134;2022-08-19T08:35:14;5.50;;;4.53;;
1811;SDS011;904;47.814;11.134;2022-08-19T08:37:43;5.80;;;5.17;;
1811;SDS011;904;47.814;11.134;2022-08-19T08:40:14;6.47;;;4.80;;
1811;SDS011;904;47.814;11.134;2022-08-19T08:42:48;7.10;;;5.10;;
1811;SDS011;904;47.814;11.134;2022-08-19T08:45:23;6.30;;;4.80;;
1811;SDS011;904;47.814;11.134;2022-08-19T08:47:51;6.03;;;5.40;;
1811;SDS011;904;47.814;11.134;2022-08-19T08:50:24;5.13;;;4.63;;
1811;SDS011;904;47.814;11.134;2022-08-19T08:52:56;7.10;;;5.30;;
1811;SDS011;904;47.814;11.134;2022-08-19T08:55:25;7.40;;;5.83;;
1811;SDS011;904;47.814;11.134;2022-08-19T08:57:57;5.90;;;4.80;;
1811;SDS011;904;47.814;11.134;2022-08-19T09:00:28;8.10;;;6.10;;
1811;SDS011;904;47.814;11.134;2022-08-19T09:02:58;5.87;;;5.10;;
1811;SDS011;904;47.814;11.134;2022-08-19T09:05:29;6.73;;;6.00;;
1811;SDS011;904;47.814;11.134;2022-08-19T09:08:07;5.70;;;5.07;;
1811;SDS011;904;47.814;11.134;2022-08-19T09:10:40;6.80;;;5.50;;
1811;SDS011;904;47.814;11.134;2022-08-19T09:13:18;6.60;;;5.50;;
1811;SDS011;904;47.814;11.134;2022-08-19T09:15:56;6.47;;;5.57;;
1811;SDS011;904;47.814;11.134;2022-08-19T09:18:29;7.67;;;6.37;;
1811;SDS011;904;47.814;11.134;2022-08-19T09:21:05;8.23;;;6.60;;
1811;SDS011;904;47.814;11.134;2022-08-19T09:23:38;6.83;;;6.03;;
1811;SDS011;904;47.814;11.134;2022-08-19T09:26:09;9.53;;;5.80;;
1811;SDS011;904;47.814;11.134;2022-08-19T09:28:40;8.17;;;5.80;;
1811;SDS011;904;47.814;11.134;2022-08-19T09:31:08;8.00;;;5.50;;
1811;SDS011;904;47.814;11.134;2022-08-19T09:33:36;9.20;;;6.37;;
1811;SDS011;904;47.814;11.134;2022-08-19T09:36:05;11.60;;;7.43;;
1811;SDS011;904;47.814;11.134;2022-08-19T09:38:34;9.20;;;7.23;;
1811;SDS011;904;47.814;11.134;2022-08-19T09:41:06;7.93;;;5.50;;
1811;SDS011;904;47.814;11.134;2022-08-19T09:43:38;9.10;;;6.97;;
1811;SDS011;904;47.814;11.134;2022-08-19T09:46:10;12.00;;;7.70;;
1811;SDS011;904;47.814;11.134;2022-08-19T09:48:38;13.37;;;6.97;;
1811;SDS011;904;47.814;11.134;2022-08-19T09:51:11;8.70;;;6.00;;
1811;SDS011;904;47.814;11.134;2022-08-19T09:53:40;9.23;;;7.10;;
1811;SDS011;904;47.814;11.134;2022-08-19T09:56:08;13.07;;;8.97;;
1811;SDS011;904;47.814;11.134;2022-08-19T09:58:40;9.77;;;7.93;;
1811;SDS011;904;47.814;11.134;2022-08-19T10:01:08;7.90;;;6.13;;
1811;SDS011;904;47.814;11.134;2022-08-19T10:03:35;10.13;;;5.80;;
1811;SDS011;904;47.814;11.134;2022-08-19T10:06:03;6.07;;;4.93;;
1811;SDS011;904;47.814;11.134;2022-08-19T10:08:34;6.87;;;5.50;;
1811;SDS011;904;47.814;11.134;2022-08-19T10:11:04;6.93;;;5.47;;
1811;SDS011;904;47.814;11.134;2022-08-19T10:13:32;6.63;;;4.87;;
1811;SDS011;904;47.814;11.134;2022-08-19T10:16:04;6.93;;;4.70;;
1811;SDS011;904;47.814;11.134;2022-08-19T10:18:33;6.33;;;4.73;;
1811;SDS011;904;47.814;11.134;2022-08-19T10:21:03;4.90;;;4.00;;
1811;SDS011;904;47.814;11.134;2022-08-19T10:23:34;4.90;;;3.63;;
1811;SDS011;904;47.814;11.134;2022-08-19T10:26:03;5.07;;;3.60;;
1811;SDS011;904;47.814;11.134;2022-08-19T10:28:32;4.23;;;3.57;;
1811;SDS011;904;47.814;11.134;2022-08-19T10:31:04;5.43;;;4.93;;
1811;SDS011;904;47.814;11.134;2022-08-19T10:33:33;5.03;;;4.40;;
1811;SDS011;904;47.814;11.134;2022-08-19T10:36:01;7.00;;;4.50;;
1811;SDS011;904;47.814;11.134;2022-08-19T10:38:29;8.00;;;4.47;;
1811;SDS011;904;47.814;11.134;2022-08-19T10:40:56;5.50;;;4.40;;
1811;SDS011;904;47.814;11.134;2022-08-19T10:43:24;6.70;;;4.20;;
1811;SDS011;904;47.814;11.134;2022-08-19T10:45:54;4.90;;;3.90;;
1811;SDS011;904;47.814;11.134;2022-08-19T10:48:25;4.73;;;3.60;;
1811;SDS011;904;47.814;11.134;2022-08-19T10:50:52;3.97;;;3.40;;
1811;SDS011;904;47.814;11.134;2022-08-19T10:53:37;5.00;;;4.10;;
1811;SDS011;904;47.814;11.134;2022-08-19T10:56:04;3.93;;;3.30;;
1811;SDS011;904;47.814;11.134;2022-08-19T10:58:49;4.10;;;3.53;;
1811;SDS011;904;47.814;11.134;2022-08-19T11:01:16;4.00;;;3.60;;
1811;SDS011;904;47.814;11.134;2022-08-19T11:03:44;4.20;;;2.87;;
1811;SDS011;904;47.814;11.134;2022-08-19T11:06:17;4.40;;;3.20;;
1811;SDS011;904;47.814;11.134;2022-08-19T11:08:50;5.90;;;4.07;;
1811;SDS011;904;47.814;11.134;2022-08-19T11:11:17;4.17;;;3.37;;
1811;SDS011;904;47.814;11.134;2022-08-19T11:13:45;4.67;;;4.17;;
1811;SDS011;904;47.814;11.134;2022-08-19T11:16:13;4.17;;;3.20;;
1811;SDS011;904;47.814;11.134;2022-08-19T11:18:42;5.97;;;3.10;;
1811;SDS011;904;47.814;11.134;2022-08-19T11:21:13;3.60;;;2.63;;
1811;SDS011;904;47.814;11.134;2022-08-19T11:23:44;3.17;;;2.10;;
1811;SDS011;904;47.814;11.134;2022-08-19T11:26:13;3.40;;;2.40;;
1811;SDS011;904;47.814;11.134;2022-08-19T11:28:40;3.20;;;2.17;;
1811;SDS011;904;47.814;11.134;2022-08-19T11:31:11;3.50;;;2.03;;
1811;SDS011;904;47.814;11.134;2022-08-19T11:33:39;2.90;;;1.90;;
1811;SDS011;904;47.814;11.134;2022-08-19T11:36:07;2.50;;;1.60;;
1811;SDS011;904;47.814;11.134;2022-08-19T11:38:35;2.60;;;1.57;;
1811;SDS011;904;47.814;11.134;2022-08-19T11:41:04;2.50;;;1.70;;
1811;SDS011;904;47.814;11.134;2022-08-19T11:43:34;2.10;;;1.20;;
1811;SDS011;904;47.814;11.134;2022-08-19T11:46:03;2.47;;;1.33;;
1811;SDS011;904;47.814;11.134;2022-08-19T11:48:32;5.93;;;1.73;;
1811;SDS011;904;47.814;11.134;2022-08-19T11:51:02;2.27;;;1.50;;
1811;SDS011;904;47.814;11.134;2022-08-19T11:53:33;2.70;;;1.70;;
1811;SDS011;904;47.814;11.134;2022-08-19T11:56:00;2.10;;;1.17;;
1811;SDS011;904;47.814;11.134;2022-08-19T11:58:28;2.20;;;1.17;;
1811;SDS011;904;47.814;11.134;2022-08-19T12:00:58;2.30;;;1.23;;
1811;SDS011;904;47.814;11.134;2022-08-19T12:03:25;1.70;;;0.80;;
1811;SDS011;904;47.814;11.134;2022-08-19T12:05:53;2.00;;;0.73;;
1811;SDS011;904;47.814;11.134;2022-08-19T12:08:20;3.00;;;0.70;;
1811;SDS011;904;47.814;11.134;2022-08-19T12:10:48;3.30;;;0.80;;
1811;SDS011;904;47.814;11.134;2022-08-19T12:13:15;2.33;;;0.83;;
1811;SDS011;904;47.814;11.134;2022-08-19T12:15:44;1.60;;;0.60;;
1811;SDS011;904;47.814;11.134;2022-08-19T12:18:13;3.60;;;0.60;;
1811;SDS011;904;47.814;11.134;2022-08-19T12:20:41;2.03;;;0.80;;
1811;SDS011;904;47.814;11.134;2022-08-19T12:23:11;1.70;;;0.80;;
1811;SDS011;904;47.814;11.134;2022-08-19T12:25:42;1.97;;;1.00;;
1811;SDS011;904;47.814;11.134;2022-08-19T12:28:14;1.80;;;0.80;;
1811;SDS011;904;47.814;11.134;2022-08-19T12:30:41;2.40;;;1.43;;
1811;SDS011;904;47.814;11.134;2022-08-19T12:33:13;2.80;;;1.50;;
1811;SDS011;904;47.814;11.134;2022-08-19T12:35:41;3.10;;;1.93;;
1811;SDS011;904;47.814;11.134;2022-08-19T12:38:09;2.63;;;1.53;;
1811;SDS011;904;47.814;11.134;2022-08-19T12:40:36;4.30;;;1.40;;
1811;SDS011;904;47.814;11.134;2022-08-19T12:43:05;3.03;;;1.43;;
1811;SDS011;904;47.814;11.134;2022-08-19T12:45:33;3.27;;;1.80;;
1811;SDS011;904;47.814;11.134;2022-08-19T12:48:00;3.93;;;2.60;;
1811;SDS011;904;47.814;11.134;2022-08-19T12:50:28;3.47;;;2.27;;
1811;SDS011;904;47.814;11.134;2022-08-19T12:52:55;3.47;;;1.87;;
1811;SDS011;904;47.814;11.134;2022-08-19T12:55:23;2.47;;;1.30;;
1811;SDS011;904;47.814;11.134;2022-08-19T12:57:50;2.60;;;1.77;;
1811;SDS011;904;47.814;11.134;2022-08-19T13:00:18;2.23;;;1.37;;
1811;SDS011;904;47.814;11.134;2022-08-19T13:02:49;1.90;;;1.03;;
1811;SDS011;904;47.814;11.134;2022-08-19T13:05:18;2.90;;;1.77;;
1811;SDS011;904;47.814;11.134;2022-08-19T13:07:47;2.30;;;1.33;;
1811;SDS011;904;47.814;11.134;2022-08-19T13:10:16;2.43;;;1.40;;
1811;SDS011;904;47.814;11.134;2022-08-19T13:12:47;2.50;;;1.50;;
1811;SDS011;904;47.814;11.134;2022-08-19T13:15:17;2.23;;;1.27;;
1811;SDS011;904;47.814;11.134;2022-08-19T13:17:45;3.07;;;1.77;;
1811;SDS011;904;47.814;11.134;2022-08-19T13:20:15;2.73;;;1.60;;
1811;SDS011;904;47.814;11.134;2022-08-19T13:22:44;2.47;;;1.53;;
1811;SDS011;904;47.814;11.134;2022-08-19T13:25:11;2.70;;;1.40;;
1811;SDS011;904;47.814;11.134;2022-08-19T13:27:41;2.90;;;2.10;;
1811;SDS011;904;47.814;11.134;2022-08-19T13:30:09;2.70;;;1.63;;
1811;SDS011;904;47.814;11.134;2022-08-19T13:32:56;2.70;;;1.67;;
1811;SDS011;904;47.814;11.134;2022-08-19T13:35:39;2.87;;;1.70;;
1811;SDS011;904;47.814;11.134;2022-08-19T13:38:08;2.37;;;1.30;;
1811;SDS011;904;47.814;11.134;2022-08-19T13:40:35;2.97;;;1.70;;
1811;SDS011;904;47.814;11.134;2022-08-19T13:43:03;3.03;;;1.60;;
1811;SDS011;904;47.814;11.134;2022-08-19T13:45:32;2.70;;;1.70;;
1811;SDS011;904;47.814;11.134;2022-08-19T13:48:02;2.77;;;1.57;;
1811;SDS011;904;47.814;11.134;2022-08-19T13:50:35;2.90;;;1.90;;
1811;SDS011;904;47.814;11.134;2022-08-19T13:53:05;2.97;;;1.60;;
1811;SDS011;904;47.814;11.134;2022-08-19T13:55:33;3.10;;;2.00;;
1811;SDS011;904;47.814;11.134;2022-08-19T13:58:01;3.07;;;1.93;;
1811;SDS011;904;47.814;11.134;2022-08-19T14:00:30;2.70;;;1.70;;
1811;SDS011;904;47.814;11.134;2022-08-19T14:02:58;3.20;;;2.30;;
1811;SDS011;904;47.814;11.134;2022-08-19T14:05:27;3.43;;;2.30;;
1811;SDS011;904;47.814;11.134;2022-08-19T14:07:56;3.53;;;2.17;;
1811;SDS011;904;47.814;11.134;2022-08-19T14:10:23;3.83;;;2.60;;
1811;SDS011;904;47.814;11.134;2022-08-19T14:12:52;2.87;;;2.03;;
1811;SDS011;904;47.814;11.134;2022-08-19T14:15:20;3.57;;;2.60;;
1811;SDS011;904;47.814;11.134;2022-08-19T14:17:49;3.97;;;2.37;;
1811;SDS011;904;47.814;11.134;2022-08-19T14:20:19;3.40;;;2.30;;
1811;SDS011;904;47.814;11.134;2022-08-19T14:22:46;3.93;;;2.87;;
1811;SDS011;904;47.814;11.134;2022-08-19T14:25:15;4.00;;;3.20;;
1811;SDS011;904;47.814;11.134;2022-08-19T14:27:44;4.13;;;3.33;;
1811;SDS011;904;47.814;11.134;2022-08-19T14:30:12;5.47;;;4.60;;
1811;SDS011;904;47.814;11.134;2022-08-19T14:32:41;5.03;;;3.90;;
1811;SDS011;904;47.814;11.134;2022-08-19T14:35:14;4.63;;;3.63;;
1811;SDS011;904;47.814;11.134;2022-08-19T14:37:44;4.80;;;3.60;;
1811;SDS011;904;47.814;11.134;2022-08-19T14:40:12;4.23;;;3.40;;
1811;SDS011;904;47.814;11.134;2022-08-19T14:42:40;3.87;;;3.17;;
1811;SDS011;904;47.814;11.134;2022-08-19T14:45:08;4.80;;;2.80;;
1811;SDS011;904;47.814;11.134;2022-08-19T14:47:37;4.80;;;3.80;;
1811;SDS011;904;47.814;11.134;2022-08-19T14:50:05;3.67;;;2.90;;
1811;SDS011;904;47.814;11.134;2022-08-19T14:52:33;5.23;;;2.40;;
1811;SDS011;904;47.814;11.134;2022-08-19T14:55:01;3.60;;;2.37;;
1811;SDS011;904;47.814;11.134;2022-08-19T14:57:29;2.80;;;2.40;;
1811;SDS011;904;47.814;11.134;2022-08-19T14:59:56;3.37;;;2.37;;
1811;SDS011;904;47.814;11.134;2022-08-19T15:02:24;3.33;;;2.20;;
1811;SDS011;904;47.814;11.134;2022-08-19T15:04:51;2.80;;;1.80;;
1811;SDS011;904;47.814;11.134;2022-08-19T15:07:20;3.90;;;3.00;;
1811;SDS011;904;47.814;11.134;2022-08-19T15:09:48;3.63;;;2.80;;
1811;SDS011;904;47.814;11.134;2022-08-19T15:12:18;3.80;;;2.87;;
1811;SDS011;904;47.814;11.134;2022-08-19T15:14:45;3.30;;;2.03;;
1811;SDS011;904;47.814;11.134;2022-08-19T15:17:15;2.40;;;1.40;;
1811;SDS011;904;47.814;11.134;2022-08-19T15:19:44;2.60;;;1.70;;
1811;SDS011;904;47.814;11.134;2022-08-19T15:22:11;2.93;;;1.80;;
1811;SDS011;904;47.814;11.134;2022-08-19T15:24:38;3.80;;;1.90;;
1811;SDS011;904;47.814;11.134;2022-08-19T15:27:08;2.90;;;1.80;;
1811;SDS011;904;47.814;11.134;2022-08-19T15:29:36;2.80;;;1.70;;